Time;durP1;ratioP1;P1;durP2;ratioP2;P2;SDS_P1;SDS_P2;PMS_P1;PMS_P2;Temp;Humidity;BMP_temperature;BMP_pressure;BME280_temperature;BME280_humidity;BME280_pressure;Samples;Min_cycle;Max_cycle;Signal;HPM_P1;HPM_P2
2023/06/12 00:01:28;;;;;;;2.40;2.20;;;18.40;99.90;;;;;;5056106;28;20021;-76
2023/06/12 00:03:56;;;;;;;3.00;2.70;;;18.30;99.90;;;;;;5038733;28;20057;-76
2023/06/12 00:06:22;;;;;;;2.17;1.98;;;18.30;99.90;;;;;;5056068;28;20020;-76
2023/06/12 00:08:47;;;;;;;3.67;2.60;;;18.30;99.90;;;;;;5037422;28;20115;-76
2023/06/12 00:11:13;;;;;;;2.53;2.33;;;18.30;99.90;;;;;;5055395;28;20029;-76
2023/06/12 00:13:40;;;;;;;2.72;2.28;;;18.30;99.90;;;;;;5055846;28;20100;-76
2023/06/12 00:16:06;;;;;;;2.08;1.80;;;18.30;99.90;;;;;;5056340;28;20017;-76
2023/06/12 00:18:32;;;;;;;3.03;2.10;;;18.30;99.90;;;;;;5037383;28;20031;-76
2023/06/12 00:20:57;;;;;;;2.40;2.20;;;18.20;99.90;;;;;;5038771;28;20036;-76
2023/06/12 00:23:23;;;;;;;2.95;2.55;;;18.20;99.90;;;;;;5056347;28;20029;-75
2023/06/12 00:25:49;;;;;;;2.10;1.90;;;18.10;99.90;;;;;;5038543;28;20021;-76
2023/06/12 00:28:14;;;;;;;4.00;2.35;;;18.10;99.90;;;;;;5038040;28;20032;-76
2023/06/12 00:30:40;;;;;;;3.38;2.20;;;18.10;99.90;;;;;;5039245;28;20037;-77
2023/06/12 00:33:05;;;;;;;5.20;2.00;;;18.00;99.90;;;;;;5037492;28;20021;-75
2023/06/12 00:35:31;;;;;;;3.40;2.33;;;18.00;99.90;;;;;;5055620;28;20043;-76
2023/06/12 00:37:58;;;;;;;1.90;1.80;;;18.00;99.90;;;;;;5055547;28;20029;-76
2023/06/12 00:40:23;;;;;;;2.45;2.25;;;17.90;99.90;;;;;;5055770;28;20023;-76
2023/06/12 00:42:50;;;;;;;1.95;1.80;;;17.90;99.90;;;;;;5037304;28;20033;-76
2023/06/12 00:45:19;;;;;;;3.05;1.80;;;17.90;99.90;;;;;;5056041;28;20017;-76
2023/06/12 00:47:56;;;;;;;1.75;1.65;;;17.90;99.90;;;;;;5037563;28;20465;-77
2023/06/12 00:50:28;;;;;;;1.88;1.73;;;17.80;99.90;;;;;;5054388;28;20032;-76
2023/06/12 00:52:56;;;;;;;2.33;2.15;;;17.80;99.90;;;;;;5037321;28;20108;-76
2023/06/12 00:55:22;;;;;;;2.42;2.22;;;17.80;99.90;;;;;;5055476;28;20410;-76
2023/06/12 00:57:48;;;;;;;2.15;1.98;;;17.80;99.90;;;;;;5037723;28;20486;-76
2023/06/12 01:00:17;;;;;;;5.07;2.13;;;17.70;99.90;;;;;;5055650;28;20024;-76
2023/06/12 01:02:45;;;;;;;2.08;1.88;;;17.70;99.90;;;;;;5037749;28;20112;-75
2023/06/12 01:05:19;;;;;;;2.53;1.98;;;17.70;99.90;;;;;;5055375;28;20021;-76
2023/06/12 01:07:56;;;;;;;2.60;2.40;;;17.80;99.90;;;;;;5036412;28;20061;-75
2023/06/12 01:10:45;;;;;;;2.60;2.20;;;17.80;99.90;;;;;;5054796;28;20040;-76
2023/06/12 01:13:12;;;;;;;2.05;1.83;;;17.70;99.90;;;;;;5036488;28;20025;-76
2023/06/12 01:15:38;;;;;;;4.15;2.13;;;17.80;99.90;;;;;;5054821;28;20025;-77
2023/06/12 01:18:06;;;;;;;6.65;2.50;;;17.80;99.90;;;;;;5054460;28;20025;-76
2023/06/12 01:20:33;;;;;;;2.30;2.00;;;17.70;99.90;;;;;;5055140;28;20389;-76
2023/06/12 01:23:37;;;;;;;6.65;2.38;;;17.70;99.90;;;;;;5036700;28;20398;-76
2023/06/12 01:26:26;;;;;;;2.28;2.08;;;17.70;99.90;;;;;;5054241;28;20557;-75
2023/06/12 01:29:06;;;;;;;4.88;2.40;;;17.60;99.90;;;;;;5036589;28;20524;-75
2023/06/12 01:32:02;;;;;;;3.33;2.45;;;17.60;99.90;;;;;;5035718;28;20060;-76
2023/06/12 01:34:54;;;;;;;5.13;1.92;;;17.50;99.90;;;;;;5026062;28;20044;-77
2023/06/12 01:37:26;;;;;;;3.03;2.28;;;17.50;99.90;;;;;;5054185;28;20028;-76
2023/06/12 01:40:00;;;;;;;4.40;2.42;;;17.40;99.90;;;;;;5036277;28;20020;-76
2023/06/12 01:42:27;;;;;;;6.18;2.60;;;17.50;99.90;;;;;;5054458;28;20040;-75
2023/06/12 01:44:54;;;;;;;2.45;2.22;;;17.40;99.90;;;;;;5037076;28;20077;-76
2023/06/12 01:47:20;;;;;;;2.65;2.20;;;17.40;99.90;;;;;;5036065;28;20052;-76
2023/06/12 01:49:47;;;;;;;3.97;2.10;;;17.30;99.90;;;;;;5054003;28;20032;-76
2023/06/12 01:52:13;;;;;;;8.15;2.25;;;17.30;99.90;;;;;;5054062;28;20115;-76
2023/06/12 01:54:38;;;;;;;2.38;2.08;;;17.30;99.90;;;;;;5053655;28;20103;-76
2023/06/12 01:57:05;;;;;;;2.58;1.90;;;17.30;99.90;;;;;;5035774;28;20032;-75
2023/06/12 01:59:32;;;;;;;3.20;1.83;;;17.30;99.90;;;;;;5035993;28;20021;-76
2023/06/12 02:01:58;;;;;;;3.97;2.17;;;17.20;99.90;;;;;;5036030;28;20111;-76
2023/06/12 02:04:24;;;;;;;1.52;1.42;;;17.20;99.90;;;;;;5054324;28;20025;-76
2023/06/12 02:06:49;;;;;;;2.55;1.95;;;17.10;99.90;;;;;;5035993;28;20052;-76
2023/06/12 02:09:15;;;;;;;3.88;1.88;;;17.10;99.90;;;;;;5054144;28;20025;-77
2023/06/12 02:11:42;;;;;;;5.00;1.80;;;17.10;99.90;;;;;;5054460;28;20596;-76
2023/06/12 02:14:07;;;;;;;3.03;1.73;;;17.10;99.90;;;;;;5054002;28;20025;-76
2023/06/12 02:16:33;;;;;;;2.20;1.88;;;17.10;99.90;;;;;;5054511;28;20071;-77
2023/06/12 02:18:59;;;;;;;3.00;1.88;;;17.10;99.90;;;;;;5053197;28;20032;-75
2023/06/12 02:21:25;;;;;;;2.78;2.22;;;16.90;99.90;;;;;;5036460;28;20021;-76
2023/06/12 02:23:50;;;;;;;3.05;2.00;;;16.90;99.90;;;;;;5036606;28;20108;-76
2023/06/12 02:26:17;;;;;;;4.20;2.40;;;16.90;99.90;;;;;;5053166;28;20439;-76
2023/06/12 02:28:43;;;;;;;2.25;2.08;;;16.70;99.90;;;;;;5036936;28;20029;-77
2023/06/12 02:31:08;;;;;;;1.98;1.77;;;16.50;99.90;;;;;;5053893;28;20044;-76
2023/06/12 02:33:37;;;;;;;2.78;2.58;;;16.60;99.90;;;;;;5054011;28;20032;-77
2023/06/12 02:36:03;;;;;;;2.28;1.85;;;16.60;99.90;;;;;;5053750;28;20475;-77
2023/06/12 02:38:29;;;;;;;3.58;2.30;;;16.60;99.90;;;;;;5036098;28;20021;-77
2023/06/12 02:40:54;;;;;;;5.00;2.10;;;16.60;99.90;;;;;;5053458;28;20013;-76
2023/06/12 02:43:20;;;;;;;3.15;2.20;;;16.60;99.90;;;;;;5036012;28;20405;-76
2023/06/12 02:45:46;;;;;;;5.82;2.42;;;16.70;99.90;;;;;;5035545;28;20409;-76
2023/06/12 02:48:11;;;;;;;3.33;2.40;;;16.60;99.90;;;;;;5034925;28;20025;-77
2023/06/12 02:50:37;;;;;;;6.28;2.50;;;16.60;99.90;;;;;;5035387;28;20029;-77
2023/06/12 02:53:02;;;;;;;2.95;2.20;;;16.60;99.90;;;;;;5053707;28;20039;-76
2023/06/12 02:55:28;;;;;;;3.08;2.30;;;16.60;99.90;;;;;;5052750;28;20371;-76
2023/06/12 02:57:54;;;;;;;3.47;2.78;;;16.50;99.90;;;;;;5035097;28;20532;-77
2023/06/12 03:00:19;;;;;;;2.47;2.03;;;16.50;99.90;;;;;;5053046;28;20021;-77
2023/06/12 03:02:47;;;;;;;2.30;2.08;;;16.50;99.90;;;;;;5052925;28;20514;-77
2023/06/12 03:05:14;;;;;;;2.47;1.75;;;16.40;99.90;;;;;;5053677;28;20021;-77
2023/06/12 03:07:42;;;;;;;4.35;2.42;;;16.40;99.90;;;;;;5053952;28;20017;-77
2023/06/12 03:10:08;;;;;;;2.33;2.13;;;16.30;99.90;;;;;;5053918;28;20021;-77
2023/06/12 03:12:34;;;;;;;2.97;2.28;;;16.30;99.90;;;;;;5035804;28;20029;-77
2023/06/12 03:15:01;;;;;;;4.15;2.35;;;16.20;99.90;;;;;;5053629;28;20044;-77
2023/06/12 03:17:26;;;;;;;5.05;2.40;;;16.30;99.90;;;;;;5035613;28;20025;-75
2023/06/12 03:19:52;;;;;;;3.30;1.98;;;16.20;99.90;;;;;;5053036;28;20036;-76
2023/06/12 03:22:18;;;;;;;3.78;2.20;;;16.10;99.90;;;;;;5053391;28;20021;-77
2023/06/12 03:24:43;;;;;;;5.38;2.40;;;16.10;99.90;;;;;;5052833;28;20103;-77
2023/06/12 03:27:10;;;;;;;3.50;2.10;;;16.00;99.90;;;;;;5052785;28;20036;-76
2023/06/12 03:29:36;;;;;;;2.22;1.83;;;16.00;99.90;;;;;;5053603;28;20043;-76
2023/06/12 03:32:01;;;;;;;3.78;2.10;;;15.90;99.90;;;;;;5056282;28;20490;-76
2023/06/12 03:34:28;;;;;;;4.82;2.30;;;15.80;99.90;;;;;;5039085;28;20115;-76
2023/06/12 03:36:54;;;;;;;2.17;1.98;;;15.80;99.90;;;;;;5055412;28;20013;-75
2023/06/12 03:39:20;;;;;;;3.30;2.38;;;15.80;99.90;;;;;;5055650;28;20044;-75
2023/06/12 03:41:56;;;;;;;1.77;1.67;;;15.70;99.90;;;;;;5055607;28;20038;-75
2023/06/12 03:44:22;;;;;;;4.32;2.25;;;15.60;99.90;;;;;;5036999;28;20029;-75
2023/06/12 03:46:48;;;;;;;2.30;2.10;;;17.30;99.90;;;;;;5057220;28;20075;-76
2023/06/12 03:49:14;;;;;;;3.20;2.45;;;17.80;99.90;;;;;;5037672;28;20029;-76
2023/06/12 03:51:40;;;;;;;2.47;2.03;;;17.70;99.90;;;;;;5037632;28;20025;-76
2023/06/12 03:54:06;;;;;;;6.68;2.13;;;17.40;99.90;;;;;;5055073;28;20029;-75
2023/06/12 03:56:32;;;;;;;3.25;2.28;;;17.20;99.90;;;;;;5036132;28;20021;-75
2023/06/12 03:58:58;;;;;;;2.45;2.25;;;17.80;99.90;;;;;;5039109;28;20025;-76
2023/06/12 04:01:24;;;;;;;4.05;2.20;;;17.50;99.90;;;;;;5038016;28;20386;-75
2023/06/12 04:03:49;;;;;;;4.10;2.35;;;17.60;99.90;;;;;;5055090;28;20036;-76
2023/06/12 04:06:15;;;;;;;2.60;2.40;;;17.40;99.90;;;;;;5055491;28;20463;-76
2023/06/12 04:08:44;;;;;;;6.88;2.72;;;17.30;99.90;;;;;;5055444;28;20060;-76
2023/06/12 04:11:13;;;;;;;2.08;1.88;;;17.80;99.90;;;;;;5055524;28;20032;-76
2023/06/12 04:13:40;;;;;;;4.18;2.38;;;17.70;99.90;;;;;;5055314;28;20469;-77
2023/06/12 04:16:07;;;;;;;2.00;1.88;;;17.60;99.90;;;;;;5055982;28;20036;-76
2023/06/12 04:18:33;;;;;;;2.38;2.17;;;17.50;99.90;;;;;;5038456;28;20051;-76
2023/06/12 04:21:00;;;;;;;2.65;2.30;;;17.60;99.90;;;;;;5056334;28;20428;-77
2023/06/12 04:23:29;;;;;;;7.50;2.50;;;17.80;99.90;;;;;;5056316;28;20025;-77
2023/06/12 04:26:01;;;;;;;3.25;2.30;;;17.80;99.90;;;;;;5055804;28;20485;-75
2023/06/12 04:28:28;;;;;;;3.47;2.42;;;17.90;99.90;;;;;;5055823;28;20189;-75
2023/06/12 04:30:54;;;;;;;7.03;2.75;;;18.10;99.90;;;;;;5037888;28;20163;-76
2023/06/12 04:33:21;;;;;;;2.88;2.42;;;17.90;99.90;;;;;;5055903;28;20095;-77
2023/06/12 04:35:46;;;;;;;2.72;2.40;;;18.00;99.90;;;;;;5038868;28;20033;-76
2023/06/12 04:38:12;;;;;;;4.30;2.35;;;18.20;99.90;;;;;;5036781;28;20034;-76
2023/06/12 04:40:38;;;;;;;4.38;2.88;;;18.40;99.90;;;;;;5055603;28;20029;-76
2023/06/12 04:43:05;;;;;;;5.35;2.33;;;18.30;99.90;;;;;;5054302;28;20036;-76
2023/06/12 04:45:32;;;;;;;3.45;2.42;;;18.50;99.90;;;;;;5055713;28;20036;-76
2023/06/12 04:47:58;;;;;;;5.05;2.63;;;18.10;99.90;;;;;;5056128;28;20386;-77
2023/06/12 04:50:25;;;;;;;4.63;3.00;;;17.90;99.90;;;;;;5055158;28;20035;-76
2023/06/12 04:52:52;;;;;;;3.78;3.08;;;17.90;99.90;;;;;;5055431;28;20028;-76
2023/06/12 04:55:22;;;;;;;4.50;2.90;;;17.90;99.90;;;;;;5037566;28;20021;-76
2023/06/12 04:57:52;;;;;;;2.92;2.67;;;17.90;99.90;;;;;;5055156;28;20070;-76
2023/06/12 05:00:19;;;;;;;4.50;2.88;;;17.90;99.90;;;;;;5037300;28;20489;-77
2023/06/12 05:02:46;;;;;;;3.42;2.90;;;18.00;99.90;;;;;;5054734;28;20081;-78
2023/06/12 05:05:12;;;;;;;4.20;2.53;;;17.90;99.90;;;;;;5054661;28;20490;-76
2023/06/12 05:07:38;;;;;;;5.05;2.53;;;17.90;99.90;;;;;;5036332;28;20021;-75
2023/06/12 05:10:04;;;;;;;5.78;2.95;;;17.90;99.90;;;;;;5054599;28;20534;-76
2023/06/12 05:12:30;;;;;;;2.97;2.67;;;17.80;99.90;;;;;;5055263;28;20501;-76
2023/06/12 05:14:59;;;;;;;3.55;2.67;;;17.90;99.90;;;;;;5054323;28;20033;-75
2023/06/12 05:17:26;;;;;;;3.85;2.97;;;17.90;99.90;;;;;;5054817;28;20045;-76
2023/06/12 05:19:51;;;;;;;4.57;3.33;;;17.80;99.90;;;;;;5054888;28;20067;-76
2023/06/12 05:22:17;;;;;;;3.92;2.90;;;17.80;99.90;;;;;;5055939;28;20024;-76
2023/06/12 05:24:43;;;;;;;4.00;2.42;;;17.80;99.90;;;;;;5055560;28;20040;-77
2023/06/12 05:27:08;;;;;;;3.20;2.90;;;17.80;99.90;;;;;;5037090;28;20082;-76
2023/06/12 05:29:34;;;;;;;5.25;3.03;;;17.80;99.90;;;;;;5055327;28;20080;-76
2023/06/12 05:32:00;;;;;;;11.88;2.80;;;17.90;99.90;;;;;;5055340;28;20028;-76
2023/06/12 05:34:26;;;;;;;4.25;2.60;;;17.90;99.90;;;;;;5054369;28;20033;-76
2023/06/12 05:36:51;;;;;;;3.47;2.47;;;18.00;99.90;;;;;;5052295;28;20017;-76
2023/06/12 05:39:17;;;;;;;9.93;2.78;;;18.60;99.90;;;;;;5052585;28;20490;-76
2023/06/12 05:41:43;;;;;;;95.80;13.70;;;18.70;99.90;;;;;;5052937;28;20521;-75
2023/06/12 05:44:09;;;;;;;164.10;16.75;;;18.70;99.90;;;;;;5053546;28;20090;-76
2023/06/12 05:46:35;;;;;;;72.65;9.32;;;18.80;99.90;;;;;;5054162;28;20017;-76
2023/06/12 05:49:00;;;;;;;16.77;4.00;;;18.90;99.90;;;;;;5036847;28;20032;-76
2023/06/12 05:51:27;;;;;;;3.95;2.65;;;18.90;99.90;;;;;;5054074;28;20028;-77
2023/06/12 05:53:53;;;;;;;3.40;2.55;;;19.00;99.90;;;;;;5052893;28;20262;-76
2023/06/12 05:56:19;;;;;;;6.28;3.83;;;18.90;99.90;;;;;;5052781;28;20155;-76
2023/06/12 05:58:45;;;;;;;3.78;2.78;;;18.90;99.90;;;;;;5053596;28;20485;-76
2023/06/12 06:01:16;;;;;;;2.47;2.28;;;19.00;99.90;;;;;;5035065;28;20036;-76
2023/06/12 06:03:45;;;;;;;6.40;2.97;;;19.00;99.90;;;;;;5035053;28;20028;-76
2023/06/12 06:06:12;;;;;;;3.80;2.95;;;19.10;99.90;;;;;;5052823;28;20025;-75
2023/06/12 06:08:38;;;;;;;3.20;2.90;;;19.10;99.90;;;;;;5052610;28;20027;-75
2023/06/12 06:11:04;;;;;;;3.83;2.60;;;19.30;99.90;;;;;;5053049;28;20452;-76
2023/06/12 06:13:31;;;;;;;2.80;2.25;;;19.20;99.90;;;;;;5034276;28;20029;-75
2023/06/12 06:15:56;;;;;;;2.42;2.22;;;19.20;99.90;;;;;;5034697;28;20025;-76
2023/06/12 06:18:22;;;;;;;3.65;2.70;;;19.10;99.90;;;;;;5052273;28;20032;-76
2023/06/12 06:20:48;;;;;;;3.00;2.30;;;19.20;99.90;;;;;;5052749;28;20025;-77
2023/06/12 06:23:14;;;;;;;2.80;2.50;;;19.30;99.90;;;;;;5052262;28;20036;-77
2023/06/12 06:25:40;;;;;;;3.35;2.90;;;19.40;99.90;;;;;;5051710;28;20035;-76
2023/06/12 06:28:06;;;;;;;5.05;2.28;;;19.50;99.90;;;;;;5052385;28;20024;-77
2023/06/12 06:30:31;;;;;;;2.90;2.60;;;19.60;99.90;;;;;;5052545;28;20473;-77
2023/06/12 06:32:57;;;;;;;2.80;2.33;;;19.70;99.90;;;;;;5034470;28;20090;-76
2023/06/12 06:35:23;;;;;;;7.47;2.30;;;19.80;99.90;;;;;;5051244;28;20017;-75
2023/06/12 06:37:49;;;;;;;4.05;2.65;;;19.80;99.90;;;;;;5050208;28;20135;-76
2023/06/12 06:40:15;;;;;;;8.48;3.40;;;19.80;99.90;;;;;;5033601;28;20021;-75
2023/06/12 06:42:41;;;;;;;4.88;3.03;;;19.90;99.90;;;;;;5033417;28;20033;-76
2023/06/12 06:45:07;;;;;;;5.35;2.35;;;19.80;99.90;;;;;;5051806;28;20013;-75
2023/06/12 06:47:33;;;;;;;4.18;2.55;;;19.70;99.90;;;;;;5034133;28;20309;-76
2023/06/12 06:49:59;;;;;;;4.22;2.20;;;19.70;99.90;;;;;;5034152;28;20028;-76
2023/06/12 06:52:26;;;;;;;2.67;2.47;;;19.60;99.90;;;;;;5051430;28;20116;-76
2023/06/12 06:54:52;;;;;;;3.15;2.40;;;19.80;99.90;;;;;;5051731;28;20394;-76
2023/06/12 06:57:18;;;;;;;3.50;2.33;;;19.90;99.90;;;;;;5052072;28;20021;-76
2023/06/12 06:59:44;;;;;;;2.40;2.15;;;20.00;99.90;;;;;;5052184;28;20021;-77
2023/06/12 07:02:09;;;;;;;3.65;2.42;;;20.00;99.90;;;;;;5052078;28;20104;-77
2023/06/12 07:04:35;;;;;;;4.93;2.65;;;20.00;99.90;;;;;;5051411;28;20104;-74
2023/06/12 07:07:02;;;;;;;4.28;2.75;;;20.00;99.90;;;;;;5051842;28;20103;-76
2023/06/12 07:09:27;;;;;;;2.72;2.40;;;20.00;99.90;;;;;;5052118;28;20075;-78
2023/06/12 07:11:53;;;;;;;3.70;2.25;;;19.90;98.80;;;;;;5034382;28;20032;-76
2023/06/12 07:14:19;;;;;;;2.70;2.22;;;19.80;99.30;;;;;;5033756;28;20078;-76
2023/06/12 07:16:45;;;;;;;5.03;2.65;;;19.80;98.90;;;;;;5034394;28;20439;-76
2023/06/12 07:19:10;;;;;;;2.50;2.30;;;19.80;99.00;;;;;;5034064;28;20021;-77
2023/06/12 07:21:36;;;;;;;3.08;2.28;;;19.80;99.20;;;;;;5052311;28;20017;-76
2023/06/12 07:24:03;;;;;;;3.85;2.80;;;19.80;99.30;;;;;;5034433;28;20042;-77
2023/06/12 07:26:29;;;;;;;2.55;2.17;;;19.90;99.90;;;;;;5052006;28;20474;-76
2023/06/12 07:28:55;;;;;;;2.50;2.30;;;20.00;98.40;;;;;;5034459;28;20116;-76
2023/06/12 07:31:21;;;;;;;2.60;2.38;;;20.10;98.00;;;;;;5034283;28;20029;-78
2023/06/12 07:33:46;;;;;;;4.28;2.72;;;20.10;97.50;;;;;;5033987;28;20029;-76
2023/06/12 07:36:12;;;;;;;3.10;2.03;;;20.20;98.10;;;;;;5034329;28;20025;-76
2023/06/12 07:38:39;;;;;;;2.83;2.53;;;20.30;97.60;;;;;;5034149;28;20525;-76
2023/06/12 07:41:05;;;;;;;3.58;2.33;;;20.40;97.10;;;;;;5052073;28;20432;-76
2023/06/12 07:43:34;;;;;;;3.45;2.83;;;20.40;96.60;;;;;;5033925;28;20032;-77
2023/06/12 07:46:03;;;;;;;4.60;2.30;;;20.30;97.00;;;;;;5034033;28;20059;-76
2023/06/12 07:48:29;;;;;;;2.92;2.35;;;20.30;96.90;;;;;;5051632;28;20104;-76
2023/06/12 07:50:55;;;;;;;2.90;2.60;;;20.30;97.50;;;;;;5034267;28;20440;-76
2023/06/12 07:53:21;;;;;;;2.58;2.28;;;20.40;96.90;;;;;;5051704;28;20079;-75
2023/06/12 07:55:49;;;;;;;5.30;2.83;;;20.40;96.70;;;;;;5051763;28;20105;-75
2023/06/12 07:58:15;;;;;;;4.85;2.85;;;20.40;96.40;;;;;;5051770;28;20017;-77
2023/06/12 08:00:41;;;;;;;4.13;2.88;;;20.60;95.80;;;;;;5033902;28;20028;-76
2023/06/12 08:03:08;;;;;;;4.22;3.22;;;20.80;95.90;;;;;;5033920;28;20052;-75
2023/06/12 08:05:34;;;;;;;4.65;2.42;;;21.00;95.60;;;;;;5033882;28;20040;-76
2023/06/12 08:08:01;;;;;;;8.10;2.83;;;21.30;95.10;;;;;;5034484;28;20025;-77
2023/06/12 08:10:27;;;;;;;4.10;2.63;;;21.70;95.10;;;;;;5053496;28;20036;-77
2023/06/12 08:12:53;;;;;;;2.83;2.45;;;21.90;93.80;;;;;;5035297;28;20029;-76
2023/06/12 08:15:20;;;;;;;5.93;3.60;;;22.10;92.60;;;;;;5035929;28;20504;-77
2023/06/12 08:17:46;;;;;;;4.25;2.67;;;22.30;92.90;;;;;;5037995;28;20029;-75
2023/06/12 08:20:13;;;;;;;2.85;2.38;;;22.30;91.40;;;;;;5039357;28;20086;-76
2023/06/12 08:22:39;;;;;;;3.15;2.30;;;22.40;90.90;;;;;;5039474;28;20093;-76
2023/06/12 08:25:09;;;;;;;2.65;2.45;;;22.30;89.90;;;;;;5057371;28;20056;-77
2023/06/12 08:27:35;;;;;;;4.68;2.35;;;22.40;91.10;;;;;;5036973;28;20025;-76
2023/06/12 08:30:03;;;;;;;2.90;2.13;;;22.50;89.80;;;;;;5055452;28;20527;-75
2023/06/12 08:32:28;;;;;;;2.92;2.58;;;22.50;88.70;;;;;;5037419;28;20474;-75
2023/06/12 08:34:54;;;;;;;5.90;2.55;;;22.40;88.90;;;;;;5037348;28;20037;-75
2023/06/12 08:37:23;;;;;;;5.45;2.63;;;22.30;89.20;;;;;;5037658;28;20021;-76
2023/06/12 08:39:49;;;;;;;8.02;3.03;;;22.10;88.20;;;;;;5056170;28;20132;-76
2023/06/12 08:42:16;;;;;;;3.53;2.95;;;22.20;88.50;;;;;;5037534;28;20067;-76
2023/06/12 08:44:44;;;;;;;4.63;2.60;;;22.10;88.20;;;;;;5037721;28;20072;-75
2023/06/12 08:47:11;;;;;;;2.78;2.42;;;22.00;87.10;;;;;;5056015;28;20677;-76
2023/06/12 08:49:37;;;;;;;2.72;2.53;;;22.00;88.70;;;;;;5037860;28;20114;-76
2023/06/12 08:52:06;;;;;;;2.65;2.45;;;22.10;86.60;;;;;;5037100;28;20098;-75
2023/06/12 08:54:36;;;;;;;2.80;2.50;;;22.10;88.70;;;;;;5037172;28;20078;-75
2023/06/12 08:57:06;;;;;;;3.00;2.10;;;22.30;89.10;;;;;;5037048;28;20106;-76
2023/06/12 08:59:32;;;;;;;2.70;2.30;;;22.40;87.30;;;;;;5037241;28;20029;-75
2023/06/12 09:01:59;;;;;;;3.35;2.58;;;22.50;88.00;;;;;;5054997;28;20025;-76
2023/06/12 09:04:56;;;;;;;2.92;2.33;;;22.60;87.50;;;;;;5036936;28;20054;-75
2023/06/12 09:07:24;;;;;;;5.53;2.45;;;22.60;84.10;;;;;;5055895;28;20545;-76
2023/06/12 09:09:49;;;;;;;2.83;2.53;;;22.50;85.40;;;;;;5038762;28;20568;-74
2023/06/12 09:12:15;;;;;;;4.15;2.85;;;22.60;84.50;;;;;;5056375;28;20071;-76
2023/06/12 09:14:48;;;;;;;5.38;2.00;;;22.60;84.20;;;;;;5038008;28;20061;-75
2023/06/12 09:17:14;;;;;;;3.08;2.38;;;22.50;83.80;;;;;;5056117;28;20021;-75
2023/06/12 09:19:50;;;;;;;2.08;1.90;;;22.60;84.10;;;;;;5056245;28;20510;-76
2023/06/12 09:22:16;;;;;;;2.90;2.38;;;22.70;83.40;;;;;;5055512;28;20021;-76
2023/06/12 09:24:42;;;;;;;2.90;2.40;;;22.80;82.80;;;;;;5038327;28;20112;-76
2023/06/12 09:27:07;;;;;;;5.00;2.72;;;22.80;82.40;;;;;;5056371;28;20213;-76
2023/06/12 09:29:42;;;;;;;2.67;2.17;;;22.90;81.10;;;;;;5055349;28;20029;-76
2023/06/12 09:32:11;;;;;;;2.60;2.40;;;23.00;81.60;;;;;;5037886;28;20482;-75
2023/06/12 09:34:37;;;;;;;2.83;2.35;;;23.00;81.70;;;;;;5037579;28;20071;-75
2023/06/12 09:37:08;;;;;;;2.58;2.17;;;23.00;82.90;;;;;;5037831;28;20020;-75
2023/06/12 09:39:34;;;;;;;3.47;2.38;;;23.10;81.30;;;;;;5056537;28;20386;-76
2023/06/12 09:42:01;;;;;;;3.08;2.20;;;23.00;81.60;;;;;;5056433;28;20021;-76
2023/06/12 09:44:29;;;;;;;8.75;2.50;;;23.00;79.00;;;;;;5037241;28;20485;-76
2023/06/12 09:47:05;;;;;;;2.42;2.08;;;22.90;79.50;;;;;;5037470;28;20033;-75
2023/06/12 09:49:33;;;;;;;9.52;2.30;;;22.70;77.50;;;;;;5055779;28;20056;-76
2023/06/12 09:52:04;;;;;;;3.38;2.70;;;22.70;80.60;;;;;;5055700;28;20112;-77
2023/06/12 09:54:31;;;;;;;2.60;2.00;;;23.00;81.00;;;;;;5037189;28;20111;-75
2023/06/12 09:56:59;;;;;;;2.08;1.80;;;23.30;79.20;;;;;;5036820;28;20027;-78
2023/06/12 09:59:28;;;;;;;2.65;1.98;;;23.40;76.90;;;;;;5037048;28;20082;-74
2023/06/12 10:02:09;;;;;;;2.38;1.80;;;23.60;80.30;;;;;;5036415;28;20029;-76
2023/06/12 10:04:40;;;;;;;2.15;1.95;;;23.70;76.60;;;;;;5036733;28;20021;-74
2023/06/12 10:07:16;;;;;;;1.85;1.70;;;23.80;78.20;;;;;;5054695;28;20078;-76
2023/06/12 10:09:43;;;;;;;2.38;1.95;;;23.90;74.50;;;;;;5053501;28;20094;-77
2023/06/12 10:12:10;;;;;;;1.88;1.77;;;24.00;73.40;;;;;;5036739;28;20071;-76
2023/06/12 10:14:37;;;;;;;4.28;2.33;;;23.80;74.20;;;;;;5053974;28;20027;-75
2023/06/12 10:17:04;;;;;;;2.17;1.70;;;23.50;74.60;;;;;;5036410;28;20589;-75
2023/06/12 10:19:32;;;;;;;4.47;2.22;;;23.50;75.70;;;;;;5053571;28;20021;-76
2023/06/12 10:21:59;;;;;;;2.30;1.80;;;23.50;73.90;;;;;;5054305;28;20021;-76
2023/06/12 10:24:25;;;;;;;5.43;1.98;;;23.60;76.10;;;;;;5037020;28;20494;-76
2023/06/12 10:26:53;;;;;;;5.18;1.63;;;23.80;75.60;;;;;;5034187;28;20393;-76
2023/06/12 10:29:25;;;;;;;3.45;2.42;;;23.80;74.20;;;;;;5035654;28;20441;-76
2023/06/12 10:31:51;;;;;;;2.42;1.98;;;23.60;74.30;;;;;;5035987;28;20032;-77
2023/06/12 10:34:17;;;;;;;1.95;1.65;;;23.50;73.50;;;;;;5036329;28;20025;-77
2023/06/12 10:36:44;;;;;;;3.05;1.80;;;23.60;73.20;;;;;;5036141;28;20025;-77
2023/06/12 10:39:19;;;;;;;6.88;1.80;;;23.70;71.70;;;;;;5033802;28;20519;-76
2023/06/12 10:41:58;;;;;;;2.17;1.98;;;23.80;72.40;;;;;;5035155;28;20448;-76
2023/06/12 10:44:42;;;;;;;2.55;1.75;;;23.80;73.10;;;;;;5052456;28;20041;-76
2023/06/12 10:47:23;;;;;;;1.88;1.67;;;23.80;71.70;;;;;;5052162;28;20036;-76
2023/06/12 10:50:03;;;;;;;1.98;1.33;;;23.80;73.10;;;;;;5034255;28;20124;-76
2023/06/12 10:52:29;;;;;;;3.97;1.42;;;23.90;70.30;;;;;;5052479;28;20394;-75
2023/06/12 10:55:18;;;;;;;3.67;1.70;;;23.80;68.10;;;;;;5052775;28;20029;-76
2023/06/12 10:57:54;;;;;;;1.65;1.55;;;24.00;67.90;;;;;;5052443;28;20385;-75
2023/06/12 11:00:22;;;;;;;2.03;1.60;;;23.80;66.80;;;;;;5052788;28;20021;-75
2023/06/12 11:02:59;;;;;;;1.98;1.73;;;23.80;67.30;;;;;;5052283;28;20028;-76
2023/06/12 11:05:26;;;;;;;1.90;1.77;;;23.70;69.80;;;;;;5034807;28;20028;-77
2023/06/12 11:08:06;;;;;;;2.75;1.63;;;23.60;69.00;;;;;;5034729;28;20057;-75
2023/06/12 11:10:33;;;;;;;3.05;1.83;;;23.80;68.80;;;;;;5034538;28;20025;-76
2023/06/12 11:13:00;;;;;;;1.85;1.75;;;23.80;66.70;;;;;;5034336;28;20439;-75
2023/06/12 11:15:26;;;;;;;2.90;2.00;;;24.00;66.50;;;;;;5034246;28;20029;-75
2023/06/12 11:17:52;;;;;;;2.33;1.90;;;23.70;64.40;;;;;;5052232;28;20155;-75
2023/06/12 11:20:19;;;;;;;9.80;2.42;;;23.70;69.30;;;;;;5052509;28;20051;-77
2023/06/12 11:22:49;;;;;;;2.30;2.10;;;23.70;70.20;;;;;;5034205;28;20110;-76
2023/06/12 11:25:17;;;;;;;1.90;1.77;;;23.90;70.40;;;;;;5034256;28;20509;-76
2023/06/12 11:27:43;;;;;;;3.90;1.92;;;24.40;69.20;;;;;;5035533;28;20021;-76
2023/06/12 11:30:13;;;;;;;2.05;1.60;;;24.20;63.80;;;;;;5053128;28;20048;-76
2023/06/12 11:32:40;;;;;;;1.73;1.55;;;23.90;65.80;;;;;;5034424;28;20025;-77
2023/06/12 11:35:08;;;;;;;3.25;1.60;;;23.70;65.00;;;;;;5035287;28;20086;-75
2023/06/12 11:37:35;;;;;;;1.92;1.77;;;24.00;67.00;;;;;;5052901;28;20025;-77
2023/06/12 11:40:11;;;;;;;1.92;1.73;;;24.30;66.20;;;;;;5035059;28;20048;-76
2023/06/12 11:42:44;;;;;;;2.53;1.70;;;24.30;65.30;;;;;;5052031;28;20028;-76
2023/06/12 11:45:12;;;;;;;2.53;1.92;;;23.80;65.00;;;;;;5034365;28;20060;-76
2023/06/12 11:47:38;;;;;;;3.15;1.98;;;23.60;65.70;;;;;;5051849;28;20089;-76
2023/06/12 11:50:06;;;;;;;1.65;1.42;;;23.90;66.20;;;;;;5051900;28;20075;-75
2023/06/12 11:52:34;;;;;;;2.58;2.03;;;24.20;64.10;;;;;;5054739;28;20032;-74
2023/06/12 11:55:05;;;;;;;2.60;1.98;;;24.20;65.10;;;;;;5038008;28;20025;-75
2023/06/12 11:57:32;;;;;;;3.15;2.30;;;24.20;65.80;;;;;;5056380;28;20449;-76
2023/06/12 11:59:58;;;;;;;3.45;1.92;;;24.00;63.60;;;;;;5055912;28;20448;-75
2023/06/12 12:02:29;;;;;;;3.40;1.80;;;24.10;65.30;;;;;;5037975;28;20032;-75
2023/06/12 12:04:56;;;;;;;11.52;2.25;;;24.10;64.30;;;;;;5055948;28;20032;-75
2023/06/12 12:07:22;;;;;;;1.95;1.67;;;24.10;66.80;;;;;;5038073;28;20052;-75
2023/06/12 12:09:48;;;;;;;2.22;1.80;;;24.00;65.80;;;;;;5055610;28;20474;-74
2023/06/12 12:12:15;;;;;;;1.88;1.75;;;24.20;65.70;;;;;;5037914;28;20025;-75
2023/06/12 12:14:48;;;;;;;2.38;2.10;;;24.20;65.70;;;;;;5038034;28;20104;-75
2023/06/12 12:17:15;;;;;;;5.30;3.10;;;24.00;66.20;;;;;;5037794;28;20159;-74
2023/06/12 12:19:41;;;;;;;2.17;1.90;;;24.10;65.30;;;;;;5055780;28;20504;-75
2023/06/12 12:22:09;;;;;;;2.58;1.92;;;24.00;66.80;;;;;;5037877;28;20028;-77
2023/06/12 12:24:36;;;;;;;1.85;1.60;;;23.80;65.10;;;;;;5055826;28;20031;-76
2023/06/12 12:27:02;;;;;;;3.20;1.70;;;23.50;67.10;;;;;;5037532;28;20151;-75
2023/06/12 12:29:28;;;;;;;3.72;2.15;;;23.40;65.70;;;;;;5037750;28;20433;-75
2023/06/12 12:31:54;;;;;;;2.10;1.90;;;23.50;69.00;;;;;;5056111;28;20103;-76
2023/06/12 12:34:20;;;;;;;2.42;1.73;;;23.60;65.50;;;;;;5057541;28;20025;-77
2023/06/12 12:36:47;;;;;;;3.13;1.83;;;23.40;64.60;;;;;;5057460;28;20330;-77
2023/06/12 12:39:13;;;;;;;4.70;1.75;;;23.40;67.30;;;;;;5039572;28;20053;-77
2023/06/12 12:41:39;;;;;;;2.15;1.88;;;23.30;65.70;;;;;;5039689;28;20024;-76
2023/06/12 12:44:04;;;;;;;3.83;2.30;;;23.00;66.50;;;;;;5057376;28;20044;-77
2023/06/12 12:46:30;;;;;;;1.90;1.80;;;22.90;67.10;;;;;;5038391;28;20090;-75
2023/06/12 12:48:57;;;;;;;3.13;1.90;;;23.00;67.70;;;;;;5068544;28;20032;-77